Time;durP1;ratioP1;P1;durP2;ratioP2;P2;SDS_P1;SDS_P2;PMS_P1;PMS_P2;Temp;Humidity;BMP_temperature;BMP_pressure;BME280_temperature;BME280_humidity;BME280_pressure;Samples;Min_cycle;Max_cycle;Signal;HPM_P1;HPM_P2
2023/01/05 00:01:53;;;;;;;22.67;14.47;;;;;;;;;;5036164;28;20201;-58
2023/01/05 00:04:21;;;;;;;22.27;13.80;;;;;;;;;;5036161;28;20247;-59
2023/01/05 00:06:49;;;;;;;22.33;13.90;;;;;;;;;;5036222;28;20205;-58
2023/01/05 00:09:17;;;;;;;21.57;13.33;;;;;;;;;;5036162;28;20213;-61
2023/01/05 00:22:55;;;;;;;21.77;13.93;;;;;;;;;;5035346;28;20519;-60
2023/01/05 00:25:26;;;;;;;21.97;13.73;;;;;;;;;;5035627;28;20208;-58
2023/01/05 00:27:55;;;;;;;22.80;14.83;;;;;;;;;;5035637;28;20203;-63
2023/01/05 00:30:28;;;;;;;21.07;14.23;;;;;;;;;;5034956;28;20216;-58
2023/01/05 00:32:55;;;;;;;23.37;15.43;;;;;;;;;;5034666;28;20661;-53
2023/01/05 00:35:23;;;;;;;25.40;17.33;;;;;;;;;;5035717;28;20276;-61
2023/01/05 00:37:50;;;;;;;27.13;15.80;;;;;;;;;;5034361;28;20291;-65
2023/01/05 00:40:20;;;;;;;24.43;15.63;;;;;;;;;;5034439;28;20200;-62
2023/01/05 00:42:47;;;;;;;24.27;14.90;;;;;;;;;;5034469;28;20248;-58
2023/01/05 00:45:17;;;;;;;22.20;13.50;;;;;;;;;;5034443;28;20224;-61
2023/01/05 00:47:44;;;;;;;24.47;15.27;;;;;;;;;;5035488;28;20200;-58
2023/01/05 00:50:16;;;;;;;26.00;15.27;;;;;;;;;;5035132;28;20219;-60
2023/01/05 00:52:43;;;;;;;25.87;14.47;;;;;;;;;;5034250;28;20630;-63
2023/01/05 00:55:11;;;;;;;23.53;14.57;;;;;;;;;;5035191;28;20270;-61
2023/01/05 00:57:39;;;;;;;29.97;17.83;;;;;;;;;;5034297;28;20562;-58
2023/01/05 01:00:12;;;;;;;27.87;16.93;;;;;;;;;;5017943;28;20201;-59
2023/01/05 01:02:39;;;;;;;23.43;15.37;;;;;;;;;;5034934;28;20609;-57
2023/01/05 01:05:07;;;;;;;22.33;14.23;;;;;;;;;;5034195;28;20319;-61
2023/01/05 01:07:34;;;;;;;30.92;15.88;;;;;;;;;;5035054;28;20216;-53
2023/01/05 01:10:04;;;;;;;27.17;16.03;;;;;;;;;;5034932;28;20578;-54
2023/01/05 01:12:31;;;;;;;23.13;14.77;;;;;;;;;;5035025;28;20209;-54
2023/01/05 01:14:58;;;;;;;24.83;14.77;;;;;;;;;;5035027;28;20287;-55
2023/01/05 01:17:25;;;;;;;35.60;18.23;;;;;;;;;;5033712;28;20278;-62
2023/01/05 01:19:52;;;;;;;23.03;14.57;;;;;;;;;;5033681;28;20227;-57
2023/01/05 01:22:20;;;;;;;26.40;16.87;;;;;;;;;;5034825;28;20270;-61
2023/01/05 01:24:47;;;;;;;25.77;14.93;;;;;;;;;;5034447;28;20224;-56
2023/01/05 01:27:14;;;;;;;20.73;13.73;;;;;;;;;;5034466;28;20196;-56
2023/01/05 01:29:41;;;;;;;21.60;13.30;;;;;;;;;;5033859;28;20207;-55
2023/01/05 01:32:09;;;;;;;24.15;14.30;;;;;;;;;;5033405;28;20215;-58
2023/01/05 01:34:35;;;;;;;45.63;25.40;;;;;;;;;;5034574;28;20204;-60
2023/01/05 01:37:03;;;;;;;20.63;14.20;;;;;;;;;;5034463;28;20204;-59
2023/01/05 01:39:36;;;;;;;21.35;13.52;;;;;;;;;;5033595;28;20308;-55
2023/01/05 01:42:14;;;;;;;21.97;13.63;;;;;;;;;;5034207;28;20599;-58
2023/01/05 01:44:51;;;;;;;20.70;13.23;;;;;;;;;;5033647;28;20240;-57
2023/01/05 01:47:36;;;;;;;19.50;13.15;;;;;;;;;;5033661;28;20185;-56
2023/01/05 01:50:20;;;;;;;19.77;13.20;;;;;;;;;;5033556;28;20200;-57
2023/01/05 01:52:50;;;;;;;19.73;11.90;;;;;;;;;;5033041;28;20197;-58
2023/01/05 01:55:17;;;;;;;19.20;12.83;;;;;;;;;;5033182;28;20277;-58
2023/01/05 01:57:45;;;;;;;32.35;17.60;;;;;;;;;;5033450;28;20204;-58
2023/01/05 02:00:13;;;;;;;31.35;16.02;;;;;;;;;;5033209;28;20266;-57
2023/01/05 02:02:48;;;;;;;18.63;12.93;;;;;;;;;;5034078;28;20270;-57
2023/01/05 02:05:22;;;;;;;20.33;12.73;;;;;;;;;;5032984;28;20255;-61
2023/01/05 02:07:50;;;;;;;23.38;13.68;;;;;;;;;;5033410;28;20196;-54
2023/01/05 02:10:20;;;;;;;20.60;13.13;;;;;;;;;;5033004;28;20626;-60
2023/01/05 02:13:06;;;;;;;27.80;14.03;;;;;;;;;;5017090;28;20185;-57
2023/01/05 02:16:15;;;;;;;25.23;13.87;;;;;;;;;;5033823;28;20212;-62
2023/01/05 02:19:05;;;;;;;20.77;13.80;;;;;;;;;;5033064;28;20211;-57
2023/01/05 02:21:58;;;;;;;18.37;13.07;;;;;;;;;;5032991;28;20221;-55
2023/01/05 02:24:41;;;;;;;21.83;13.53;;;;;;;;;;5033096;28;20255;-57
2023/01/05 02:27:35;;;;;;;18.30;12.47;;;;;;;;;;5033027;28;20217;-54
2023/01/05 02:30:37;;;;;;;29.87;14.90;;;;;;;;;;5032752;28;20215;-61
2023/01/05 02:33:19;;;;;;;27.10;14.55;;;;;;;;;;5033651;28;20707;-54
2023/01/05 02:35:56;;;;;;;22.20;12.83;;;;;;;;;;5033146;28;20200;-60
2023/01/05 02:38:37;;;;;;;29.20;15.20;;;;;;;;;;5016827;28;20189;-55
2023/01/05 02:41:13;;;;;;;21.87;13.57;;;;;;;;;;5016683;28;20251;-55
2023/01/05 02:43:43;;;;;;;30.90;14.67;;;;;;;;;;5032651;28;20239;-57
2023/01/05 02:46:10;;;;;;;25.70;13.65;;;;;;;;;;5033946;28;20213;-58
2023/01/05 02:48:39;;;;;;;29.15;14.65;;;;;;;;;;5032653;28;20262;-63
2023/01/05 02:51:15;;;;;;;27.73;15.17;;;;;;;;;;5032578;28;20227;-58
2023/01/05 02:53:48;;;;;;;26.38;15.20;;;;;;;;;;5032931;28;20185;-58
2023/01/05 02:56:20;;;;;;;59.00;41.17;;;;;;;;;;5016697;28;20209;-58
2023/01/05 02:58:55;;;;;;;22.15;15.98;;;;;;;;;;5033830;28;20247;-55
2023/01/05 03:01:30;;;;;;;22.30;13.00;;;;;;;;;;5032768;28;20216;-52
2023/01/05 03:04:05;;;;;;;23.88;14.82;;;;;;;;;;5016498;28;20208;-57
2023/01/05 03:06:45;;;;;;;25.20;14.02;;;;;;;;;;5037124;28;20204;-58
2023/01/05 03:09:18;;;;;;;23.73;12.87;;;;;;;;;;5021070;28;20212;-58
2023/01/05 03:14:50;;;;;;;20.00;12.50;;;;;;;;;;5036362;28;20211;-55
2023/01/05 03:17:32;;;;;;;21.95;12.65;;;;;;;;;;5019837;28;20220;-58
2023/01/05 03:20:00;;;;;;;21.03;14.00;;;;;;;;;;5036140;28;20200;-63
2023/01/05 03:37:08;;;;;;;17.77;11.35;;;;;;;;;;5021907;28;20232;-59
2023/01/05 03:39:39;;;;;;;54.63;37.70;;;;;;;;;;5019478;28;20208;-59
2023/01/05 03:42:08;;;;;;;38.35;20.20;;;;;;;;;;5036510;28;20243;-59
2023/01/05 03:44:36;;;;;;;21.33;13.65;;;;;;;;;;5019576;28;20220;-60
2023/01/05 03:47:04;;;;;;;21.77;13.15;;;;;;;;;;5019201;28;20529;-57
2023/01/05 03:49:32;;;;;;;19.15;11.13;;;;;;;;;;5035409;28;20200;-58
2023/01/05 03:52:00;;;;;;;23.20;11.55;;;;;;;;;;5035687;28;20630;-59
2023/01/05 03:54:28;;;;;;;23.63;12.43;;;;;;;;;;5036542;28;20204;-51
2023/01/05 03:56:55;;;;;;;17.33;10.60;;;;;;;;;;5035620;28;20209;-58
2023/01/05 03:59:23;;;;;;;18.35;11.15;;;;;;;;;;5036109;28;20521;-59
2023/01/05 04:01:50;;;;;;;36.00;16.27;;;;;;;;;;5035180;28;20204;-55
2023/01/05 04:04:18;;;;;;;17.40;12.13;;;;;;;;;;5035322;28;20229;-50
2023/01/05 04:06:45;;;;;;;19.42;11.70;;;;;;;;;;5035530;28;20204;-53
2023/01/05 04:09:14;;;;;;;18.23;11.15;;;;;;;;;;5035230;28;20213;-61
2023/01/05 04:11:43;;;;;;;15.45;11.30;;;;;;;;;;5035160;28;20209;-58
2023/01/05 04:14:10;;;;;;;18.92;11.73;;;;;;;;;;5035049;28;20282;-60
2023/01/05 04:16:38;;;;;;;19.08;11.57;;;;;;;;;;5035202;28;20223;-58
2023/01/05 04:19:19;;;;;;;21.20;11.82;;;;;;;;;;5035143;28;20212;-55
2023/01/05 04:21:49;;;;;;;31.92;16.17;;;;;;;;;;5035026;28;20271;-61
2023/01/05 04:24:17;;;;;;;15.15;11.07;;;;;;;;;;5035601;28;20212;-58
2023/01/05 04:26:45;;;;;;;14.70;11.05;;;;;;;;;;5034775;28;20232;-55
2023/01/05 04:29:13;;;;;;;15.50;11.82;;;;;;;;;;5035777;28;20215;-49
2023/01/05 04:31:43;;;;;;;16.98;11.35;;;;;;;;;;5034886;28;20198;-58
2023/01/05 04:34:11;;;;;;;22.25;13.48;;;;;;;;;;5034869;28;20232;-62
2023/01/05 04:36:39;;;;;;;22.00;13.10;;;;;;;;;;5035751;28;20200;-58
2023/01/05 04:39:06;;;;;;;24.15;13.77;;;;;;;;;;5034592;28;20205;-52
2023/01/05 04:41:36;;;;;;;46.58;20.35;;;;;;;;;;5034399;28;20240;-55
2023/01/05 04:44:04;;;;;;;18.50;13.10;;;;;;;;;;5033174;28;20290;-60
2023/01/05 04:46:31;;;;;;;18.00;12.18;;;;;;;;;;5027939;28;20243;-60
2023/01/05 04:48:58;;;;;;;17.13;12.00;;;;;;;;;;5035088;28;20692;-59
2023/01/05 04:51:25;;;;;;;29.50;13.77;;;;;;;;;;5034560;28;20251;-59
2023/01/05 04:53:53;;;;;;;37.72;15.50;;;;;;;;;;5034161;28;20219;-57
2023/01/05 04:56:22;;;;;;;37.70;14.82;;;;;;;;;;5034352;28;20204;-59
2023/01/05 04:58:50;;;;;;;18.02;12.05;;;;;;;;;;5035046;28;20219;-60
2023/01/05 05:01:17;;;;;;;42.25;21.80;;;;;;;;;;5034348;28;20600;-48
2023/01/05 05:03:50;;;;;;;31.67;25.58;;;;;;;;;;5034195;28;20208;-59
2023/01/05 05:06:20;;;;;;;21.50;14.55;;;;;;;;;;5030664;28;20243;-54
2023/01/05 05:08:50;;;;;;;15.00;10.90;;;;;;;;;;5032909;28;20229;-60
2023/01/05 05:11:17;;;;;;;11.63;8.95;;;;;;;;;;5029114;28;20240;-60
2023/01/05 05:13:47;;;;;;;13.13;9.65;;;;;;;;;;5024127;28;20233;-60
2023/01/05 05:16:14;;;;;;;17.85;10.55;;;;;;;;;;5025074;28;20282;-57
2023/01/05 05:18:44;;;;;;;14.85;9.50;;;;;;;;;;5026684;28;20217;-60
2023/01/05 05:21:16;;;;;;;13.82;9.00;;;;;;;;;;5032126;28;20308;-59
2023/01/05 05:23:44;;;;;;;12.77;9.45;;;;;;;;;;5025145;28;20221;-61
2023/01/05 05:26:11;;;;;;;14.40;10.60;;;;;;;;;;5017956;28;20241;-57
2023/01/05 05:28:38;;;;;;;14.20;8.77;;;;;;;;;;5013628;28;20265;-59
2023/01/05 05:31:05;;;;;;;11.68;7.40;;;;;;;;;;5019580;28;20267;-63
2023/01/05 05:33:33;;;;;;;12.15;7.50;;;;;;;;;;5018804;28;20233;-61
2023/01/05 05:36:00;;;;;;;11.27;7.65;;;;;;;;;;5023849;28;20224;-59
2023/01/05 05:38:27;;;;;;;11.52;6.28;;;;;;;;;;5033569;28;20236;-60
2023/01/05 05:40:54;;;;;;;13.73;7.30;;;;;;;;;;5032247;28;20557;-59
2023/01/05 05:43:21;;;;;;;5.85;4.40;;;;;;;;;;5032748;28;20616;-55
2023/01/05 05:45:48;;;;;;;12.52;6.82;;;;;;;;;;5033458;28;20245;-60
2023/01/05 05:48:18;;;;;;;4.32;3.80;;;;;;;;;;5032017;28;20228;-61
2023/01/05 05:50:45;;;;;;;3.80;2.85;;;;;;;;;;5032842;28;20224;-60
2023/01/05 05:53:12;;;;;;;3.05;2.72;;;;;;;;;;5032829;28;20563;-60
2023/01/05 05:55:39;;;;;;;5.20;2.95;;;;;;;;;;5032250;28;20233;-60
2023/01/05 05:58:07;;;;;;;6.00;2.85;;;;;;;;;;5032943;28;20687;-54
2023/01/05 06:00:34;;;;;;;10.13;3.28;;;;;;;;;;5033394;28;20220;-55
2023/01/05 06:03:01;;;;;;;6.07;2.92;;;;;;;;;;5032794;28;20680;-54
2023/01/05 06:05:29;;;;;;;5.20;4.03;;;;;;;;;;5033088;28;20276;-57
2023/01/05 06:07:56;;;;;;;12.02;4.35;;;;;;;;;;5032919;28;20225;-60
2023/01/05 06:10:23;;;;;;;3.10;2.30;;;;;;;;;;5048783;28;20259;-60
2023/01/05 06:12:54;;;;;;;3.58;2.10;;;;;;;;;;5032983;28;20375;-60
2023/01/05 06:15:22;;;;;;;11.05;3.67;;;;;;;;;;5033007;28;20306;-56
2023/01/05 06:17:50;;;;;;;7.68;3.20;;;;;;;;;;5032924;28;20240;-60
2023/01/05 06:20:17;;;;;;;47.83;27.13;;;;;;;;;;5032740;28;20240;-56
2023/01/05 06:22:44;;;;;;;17.00;13.82;;;;;;;;;;5032739;28;20244;-58
2023/01/05 06:25:11;;;;;;;7.53;4.30;;;;;;;;;;5032652;28;20267;-61
2023/01/05 06:27:38;;;;;;;6.35;3.00;;;;;;;;;;5032897;28;20237;-51
2023/01/05 06:30:06;;;;;;;4.32;2.88;;;;;;;;;;5032651;28;20232;-58
2023/01/05 06:32:34;;;;;;;10.13;4.43;;;;;;;;;;5033226;28;20224;-59
2023/01/05 06:35:01;;;;;;;3.97;2.50;;;;;;;;;;5032226;28;20239;-59
2023/01/05 06:37:28;;;;;;;2.55;1.90;;;;;;;;;;5031743;28;20216;-59
2023/01/05 06:39:55;;;;;;;4.43;2.35;;;;;;;;;;5034910;28;20208;-56
2023/01/05 06:42:22;;;;;;;3.22;1.92;;;;;;;;;;5037017;28;20301;-60
2023/01/05 06:44:50;;;;;;;3.10;1.23;;;;;;;;;;5037250;28;20284;-60
2023/01/05 06:47:17;;;;;;;3.25;1.75;;;;;;;;;;5036499;28;20545;-60
2023/01/05 06:49:44;;;;;;;4.20;2.70;;;;;;;;;;5021092;28;20630;-58
2023/01/05 06:52:12;;;;;;;4.40;2.08;;;;;;;;;;5017412;28;20217;-57
2023/01/05 06:54:43;;;;;;;2.70;1.67;;;;;;;;;;5017431;28;20205;-60
2023/01/05 06:57:10;;;;;;;6.18;2.55;;;;;;;;;;5016461;28;20517;-53
2023/01/05 06:59:37;;;;;;;5.93;2.67;;;;;;;;;;5017361;28;20233;-49
2023/01/05 07:02:05;;;;;;;3.53;2.45;;;;;;;;;;5017602;28;20217;-56
2023/01/05 07:04:32;;;;;;;15.57;5.72;;;;;;;;;;5017437;28;20516;-57
2023/01/05 07:07:00;;;;;;;5.55;2.80;;;;;;;;;;5017202;28;20559;-57
2023/01/05 07:09:27;;;;;;;2.90;1.70;;;;;;;;;;5016563;28;20232;-57
2023/01/05 07:11:54;;;;;;;4.32;2.40;;;;;;;;;;5016432;28;20216;-53
2023/01/05 07:14:21;;;;;;;4.50;2.05;;;;;;;;;;5017492;28;20210;-56
2023/01/05 07:16:49;;;;;;;6.53;2.38;;;;;;;;;;5017213;28;20209;-57
2023/01/05 07:19:16;;;;;;;6.75;2.22;;;;;;;;;;5017125;28;20523;-54
2023/01/05 07:21:43;;;;;;;4.88;2.55;;;;;;;;;;5016604;28;20283;-58
2023/01/05 07:24:10;;;;;;;9.43;4.65;;;;;;;;;;5016722;28;20205;-58
2023/01/05 07:26:37;;;;;;;4.05;2.90;;;;;;;;;;5016828;28;20710;-51
2023/01/05 07:29:04;;;;;;;2.53;2.10;;;;;;;;;;5015560;28;20201;-60
2023/01/05 07:31:32;;;;;;;5.28;2.63;;;;;;;;;;5014504;28;20634;-59
2023/01/05 07:33:59;;;;;;;3.72;2.70;;;;;;;;;;5016850;28;20217;-51
2023/01/05 07:36:26;;;;;;;4.00;2.80;;;;;;;;;;5016713;28;20210;-60
2023/01/05 07:38:53;;;;;;;4.93;2.38;;;;;;;;;;5016881;28;20283;-59
2023/01/05 07:41:25;;;;;;;3.97;2.75;;;;;;;;;;5016790;28;20307;-62
2023/01/05 07:43:52;;;;;;;16.13;6.63;;;;;;;;;;5015925;28;20694;-49
2023/01/05 07:46:19;;;;;;;2.50;2.10;;;;;;;;;;5015463;28;20233;-60
2023/01/05 07:48:47;;;;;;;7.20;2.63;;;;;;;;;;5016895;28;20280;-56
2023/01/05 07:51:14;;;;;;;5.10;1.70;;;;;;;;;;5015529;28;20219;-56
2023/01/05 07:53:41;;;;;;;7.55;3.28;;;;;;;;;;5015824;28;20665;-58
2023/01/05 07:56:11;;;;;;;6.47;2.30;;;;;;;;;;5015257;28;20236;-61
2023/01/05 07:58:39;;;;;;;3.53;2.42;;;;;;;;;;5015205;28;20232;-58
2023/01/05 08:01:08;;;;;;;4.35;2.58;;;;;;;;;;5016381;28;20520;-59
2023/01/05 08:03:36;;;;;;;5.30;3.08;;;;;;;;;;5016722;28;20275;-59
2023/01/05 08:06:16;;;;;;;10.27;3.35;;;;;;;;;;5016205;28;20673;-55
2023/01/05 08:08:43;;;;;;;6.65;2.67;;;;;;;;;;5016410;28;20229;-58
2023/01/05 08:11:14;;;;;;;4.70;2.70;;;;;;;;;;5016450;28;20568;-54
2023/01/05 08:14:01;;;;;;;7.75;3.47;;;;;;;;;;5016257;28;20225;-57
2023/01/05 08:16:30;;;;;;;5.45;2.67;;;;;;;;;;5016303;28;20272;-58
2023/01/05 08:18:58;;;;;;;5.90;2.90;;;;;;;;;;5016360;28;20213;-48
2023/01/05 08:21:26;;;;;;;32.28;9.65;;;;;;;;;;5016225;28;20229;-52
2023/01/05 08:23:53;;;;;;;28.27;9.45;;;;;;;;;;5015990;28;20559;-50
2023/01/05 08:26:22;;;;;;;11.13;5.68;;;;;;;;;;5015780;28;20236;-55
2023/01/05 08:28:50;;;;;;;6.50;3.55;;;;;;;;;;5014983;28;20201;-58
2023/01/05 08:31:24;;;;;;;3.47;2.70;;;;;;;;;;5015969;28;20213;-49
2023/01/05 08:33:58;;;;;;;4.22;2.50;;;;;;;;;;5015904;28;20271;-56
2023/01/05 08:36:26;;;;;;;4.22;2.20;;;;;;;;;;5015772;28;20610;-59
2023/01/05 08:38:54;;;;;;;3.65;2.38;;;;;;;;;;5015623;28;20209;-61
2023/01/05 08:41:27;;;;;;;10.07;3.60;;;;;;;;;;5015886;28;20213;-54
2023/01/05 08:43:56;;;;;;;11.05;5.15;;;;;;;;;;5016043;28;20236;-63
2023/01/05 08:46:25;;;;;;;8.50;2.60;;;;;;;;;;5015378;28;20233;-58
2023/01/05 08:48:55;;;;;;;4.18;2.80;;;;;;;;;;5015430;28;20233;-57
2023/01/05 08:51:23;;;;;;;5.68;2.95;;;;;;;;;;5015376;28;20762;-57
2023/01/05 08:53:50;;;;;;;3.72;2.08;;;;;;;;;;5015700;28;20201;-54
2023/01/05 08:56:18;;;;;;;4.90;2.17;;;;;;;;;;5015508;28;20209;-55
2023/01/05 08:58:45;;;;;;;3.95;2.25;;;;;;;;;;5015836;28;20269;-54
2023/01/05 09:01:15;;;;;;;4.20;2.10;;;;;;;;;;5015233;28;20205;-58
2023/01/05 09:03:42;;;;;;;8.50;3.58;;;;;;;;;;5013672;28;20221;-65
2023/01/05 09:06:11;;;;;;;6.95;3.72;;;;;;;;;;5014482;28;20244;-61
2023/01/05 09:08:40;;;;;;;4.70;2.97;;;;;;;;;;5013590;28;20525;-57
2023/01/05 09:11:09;;;;;;;21.90;10.00;;;;;;;;;;5013915;28;20214;-61
2023/01/05 09:13:37;;;;;;;7.53;3.10;;;;;;;;;;5013957;28;20216;-55
2023/01/05 09:16:13;;;;;;;6.25;3.75;;;;;;;;;;5015282;28;20205;-57
2023/01/05 09:18:41;;;;;;;5.88;2.92;;;;;;;;;;5014372;28;20212;-52
2023/01/05 09:21:10;;;;;;;8.57;3.17;;;;;;;;;;5013315;28;20271;-58
2023/01/05 09:23:37;;;;;;;10.35;4.28;;;;;;;;;;5014599;28;20560;-61
2023/01/05 09:26:07;;;;;;;4.35;2.85;;;;;;;;;;5014489;28;20674;-58
2023/01/05 09:28:35;;;;;;;6.50;3.05;;;;;;;;;;5014829;28;20201;-56
2023/01/05 09:31:10;;;;;;;10.05;3.38;;;;;;;;;;5014428;28;20208;-57
2023/01/05 09:33:38;;;;;;;12.13;4.40;;;;;;;;;;5013516;28;20189;-59
2023/01/05 09:36:07;;;;;;;9.52;3.60;;;;;;;;;;5014626;28;20201;-56
2023/01/05 09:38:34;;;;;;;8.13;3.00;;;;;;;;;;5014270;28;20666;-58
2023/01/05 09:41:13;;;;;;;6.18;3.17;;;;;;;;;;5014239;28;20202;-60
2023/01/05 09:43:40;;;;;;;21.88;7.40;;;;;;;;;;5014066;28;20307;-56
2023/01/05 09:46:12;;;;;;;8.50;3.72;;;;;;;;;;5014260;28;20221;-54
2023/01/05 09:48:43;;;;;;;8.23;3.70;;;;;;;;;;5014898;28;20259;-61
2023/01/05 09:51:12;;;;;;;12.77;4.00;;;;;;;;;;5013522;28;20650;-55
2023/01/05 09:53:39;;;;;;;9.90;4.13;;;;;;;;;;5013484;28;20259;-57
2023/01/05 09:56:29;;;;;;;11.45;3.60;;;;;;;;;;5013922;28;20544;-56
2023/01/05 09:59:27;;;;;;;7.32;3.10;;;;;;;;;;5014295;28;20223;-60
2023/01/05 10:01:58;;;;;;;120.07;42.55;;;;;;;;;;5014203;28;20236;-59
2023/01/05 10:04:28;;;;;;;44.67;24.98;;;;;;;;;;5013070;28;20713;-56
2023/01/05 10:07:07;;;;;;;11.15;6.15;;;;;;;;;;5013534;28;20227;-52
2023/01/05 10:09:38;;;;;;;7.85;3.30;;;;;;;;;;5013508;28;20224;-58
2023/01/05 10:15:18;;;;;;;6.43;3.20;;;;;;;;;;5013971;28;20314;-60
2023/01/05 10:17:45;;;;;;;9.70;6.05;;;;;;;;;;5012443;28;20219;-59
2023/01/05 10:20:49;;;;;;;8.68;4.68;;;;;;;;;;5013990;28;20228;-51
2023/01/05 10:23:16;;;;;;;4.40;2.13;;;;;;;;;;4990510;28;20216;-55
2023/01/05 10:25:48;;;;;;;13.23;6.85;;;;;;;;;;5013981;28;20235;-52
2023/01/05 10:28:33;;;;;;;9.18;3.22;;;;;;;;;;5014039;28;20217;-63
2023/01/05 10:31:16;;;;;;;10.07;2.28;;;;;;;;;;5014322;28;20539;-60
2023/01/05 10:33:52;;;;;;;6.80;3.40;;;;;;;;;;5013955;28;20225;-52
2023/01/05 10:36:31;;;;;;;6.95;2.50;;;;;;;;;;5012992;28;20208;-60
2023/01/05 10:39:43;;;;;;;16.58;5.82;;;;;;;;;;5013611;28;20221;-59
2023/01/05 10:42:41;;;;;;;8.35;3.35;;;;;;;;;;5012653;28;20229;-64
2023/01/05 10:45:12;;;;;;;7.45;4.72;;;;;;;;;;5013680;28;20205;-57
2023/01/05 10:47:40;;;;;;;6.93;3.80;;;;;;;;;;5013899;28;20225;-60
2023/01/05 10:50:25;;;;;;;6.30;3.25;;;;;;;;;;5013787;28;20221;-57
2023/01/05 10:52:53;;;;;;;3.85;3.13;;;;;;;;;;5013873;28;20201;-60
2023/01/05 10:55:20;;;;;;;4.82;2.75;;;;;;;;;;5014061;28;20267;-54
2023/01/05 10:57:47;;;;;;;6.75;3.33;;;;;;;;;;5014043;28;20585;-57
2023/01/05 11:00:16;;;;;;;6.78;3.00;;;;;;;;;;5013725;28;20205;-58
2023/01/05 11:02:50;;;;;;;12.93;4.13;;;;;;;;;;5013489;28;20582;-55
2023/01/05 11:05:32;;;;;;;8.93;3.65;;;;;;;;;;5013921;28;20213;-51
2023/01/05 11:08:06;;;;;;;4.72;2.83;;;;;;;;;;5012843;28;20221;-62
2023/01/05 11:10:37;;;;;;;7.30;3.85;;;;;;;;;;5012885;28;20214;-57
2023/01/05 11:13:38;;;;;;;7.60;3.33;;;;;;;;;;5012754;28;20557;-58
2023/01/05 11:16:12;;;;;;;9.02;3.65;;;;;;;;;;5013772;28;20205;-54
2023/01/05 11:18:53;;;;;;;4.82;3.17;;;;;;;;;;5012803;28;20304;-58
2023/01/05 11:21:43;;;;;;;9.82;4.00;;;;;;;;;;5012706;28;20213;-61
2023/01/05 11:24:22;;;;;;;13.85;6.00;;;;;;;;;;5013829;28;20288;-55
2023/01/05 11:26:52;;;;;;;29.63;12.20;;;;;;;;;;5016268;28;20294;-56
2023/01/05 11:29:19;;;;;;;46.38;21.27;;;;;;;;;;5017041;28;20209;-56
2023/01/05 11:32:00;;;;;;;38.92;19.30;;;;;;;;;;5016913;28;20213;-60
2023/01/05 11:34:27;;;;;;;35.78;16.75;;;;;;;;;;5017121;28;20205;-57
2023/01/05 11:37:00;;;;;;;34.00;17.10;;;;;;;;;;5016892;28;20210;-59
2023/01/05 11:39:45;;;;;;;20.08;10.55;;;;;;;;;;5016622;28;20308;-58
2023/01/05 11:42:13;;;;;;;15.20;5.03;;;;;;;;;;5016865;28;20241;-52
2023/01/05 11:45:02;;;;;;;38.42;13.40;;;;;;;;;;5016812;28;20206;-61
2023/01/05 11:47:38;;;;;;;32.58;11.55;;;;;;;;;;5016004;28;20213;-60
2023/01/05 11:50:17;;;;;;;10.57;4.40;;;;;;;;;;5016713;28;20213;-60
2023/01/05 11:52:47;;;;;;;9.38;3.60;;;;;;;;;;5016794;28;20259;-58
2023/01/05 11:55:32;;;;;;;6.38;3.20;;;;;;;;;;5015669;28;20213;-58
2023/01/05 11:58:16;;;;;;;6.97;2.38;;;;;;;;;;5016545;28;20288;-60
2023/01/05 12:00:53;;;;;;;7.35;2.10;;;;;;;;;;5016784;28;20224;-60
2023/01/05 12:03:45;;;;;;;3.92;2.17;;;;;;;;;;5016686;28;20193;-60
2023/01/05 12:06:40;;;;;;;3.38;1.85;;;;;;;;;;5016511;28;20236;-54
2023/01/05 12:09:20;;;;;;;11.85;3.75;;;;;;;;;;5016378;28;20201;-59
2023/01/05 12:11:57;;;;;;;5.47;2.13;;;;;;;;;;5016101;28;20216;-63
2023/01/05 12:14:31;;;;;;;9.20;2.30;;;;;;;;;;5014220;28;20209;-59
2023/01/05 12:17:01;;;;;;;5.88;2.03;;;;;;;;;;5019322;28;20601;-58
2023/01/05 12:19:45;;;;;;;5.10;2.42;;;;;;;;;;5033851;28;20232;-60
2023/01/05 12:22:12;;;;;;;10.50;1.98;;;;;;;;;;5033748;28;20228;-54
2023/01/05 12:24:46;;;;;;;5.90;2.70;;;;;;;;;;5034937;28;20291;-60
2023/01/05 12:27:43;;;;;;;5.85;2.00;;;;;;;;;;5033796;28;20228;-57
2023/01/05 12:30:38;;;;;;;3.58;2.33;;;;;;;;;;5033390;28;20224;-59
2023/01/05 12:34:03;;;;;;;5.72;2.33;;;;;;;;;;5033706;28;20255;-62
2023/01/05 12:36:39;;;;;;;4.93;1.83;;;;;;;;;;5033676;28;20216;-59
2023/01/05 12:39:41;;;;;;;4.70;1.90;;;;;;;;;;5034184;28;20232;-62
2023/01/05 12:42:46;;;;;;;4.00;1.88;;;;;;;;;;5033087;28;20680;-59
2023/01/05 12:46:00;;;;;;;4.30;2.50;;;;;;;;;;5034699;28;20224;-58
2023/01/05 12:48:37;;;;;;;7.68;3.53;;;;;;;;;;5033273;28;20666;-58
2023/01/05 12:51:17;;;;;;;6.82;2.47;;;;;;;;;;5030637;28;20228;-58
2023/01/05 12:53:53;;;;;;;4.18;2.30;;;;;;;;;;5032588;28;20251;-59
2023/01/05 12:56:37;;;;;;;7.03;2.75;;;;;;;;;;5033206;28;20894;-61
2023/01/05 12:59:23;;;;;;;3.08;1.55;;;;;;;;;;5032960;28;20232;-62
2023/01/05 13:02:05;;;;;;;4.97;2.17;;;;;;;;;;5034340;28;20224;-61
2023/01/05 13:04:56;;;;;;;6.53;2.80;;;;;;;;;;5033071;28;20204;-61
2023/01/05 13:07:28;;;;;;;5.25;2.33;;;;;;;;;;5031511;28;20221;-60
2023/01/05 13:09:59;;;;;;;16.63;8.38;;;;;;;;;;5032840;28;20844;-60
2023/01/05 13:12:30;;;;;;;10.75;4.35;;;;;;;;;;5033093;28;20942;-60
2023/01/05 13:15:11;;;;;;;12.30;4.40;;;;;;;;;;5034082;28;20589;-60
2023/01/05 13:17:43;;;;;;;8.65;3.10;;;;;;;;;;5034504;28;20220;-61
2023/01/05 13:20:16;;;;;;;14.73;4.68;;;;;;;;;;5033288;28;20684;-61
2023/01/05 13:22:47;;;;;;;15.45;6.72;;;;;;;;;;5034028;28;20193;-61
2023/01/05 13:25:20;;;;;;;7.93;4.13;;;;;;;;;;5033357;28;20200;-60
2023/01/05 13:27:47;;;;;;;6.38;3.28;;;;;;;;;;5032435;28;20224;-62
2023/01/05 13:30:25;;;;;;;9.52;3.80;;;;;;;;;;5023544;28;20662;-61
2023/01/05 13:32:58;;;;;;;6.32;3.17;;;;;;;;;;5018529;28;20315;-61
2023/01/05 13:35:44;;;;;;;6.47;3.08;;;;;;;;;;5031449;28;20263;-62
2023/01/05 13:38:35;;;;;;;5.25;3.25;;;;;;;;;;5033219;28;20228;-61
2023/01/05 13:41:18;;;;;;;9.70;3.42;;;;;;;;;;5032093;28;20229;-61
2023/01/05 13:44:06;;;;;;;10.32;3.47;;;;;;;;;;5029784;28;20289;-61
2023/01/05 13:46:42;;;;;;;10.95;4.13;;;;;;;;;;5031718;28;20279;-60
2023/01/05 13:49:28;;;;;;;11.93;3.70;;;;;;;;;;5031915;28;20244;-60
2023/01/05 13:51:57;;;;;;;13.10;4.70;;;;;;;;;;5032895;28;20236;-59
2023/01/05 13:54:36;;;;;;;9.02;4.10;;;;;;;;;;5032078;28;20661;-59
2023/01/05 13:57:23;;;;;;;26.93;8.60;;;;;;;;;;5033605;28;20229;-59
2023/01/05 13:59:53;;;;;;;33.88;9.73;;;;;;;;;;5031479;28;20228;-60
2023/01/05 14:02:41;;;;;;;63.90;16.10;;;;;;;;;;5032816;28;20228;-60
2023/01/05 14:05:32;;;;;;;29.83;8.52;;;;;;;;;;5033066;28;20235;-61
2023/01/05 14:08:02;;;;;;;23.60;7.03;;;;;;;;;;5027207;28;20240;-61
2023/01/05 14:10:32;;;;;;;46.70;12.48;;;;;;;;;;5032745;28;20232;-59
2023/01/05 14:12:59;;;;;;;31.20;9.02;;;;;;;;;;5031948;28;20744;-61
2023/01/05 14:15:31;;;;;;;21.35;7.07;;;;;;;;;;5030903;28;20224;-60
2023/01/05 14:18:03;;;;;;;22.05;8.15;;;;;;;;;;5031587;28;20225;-61
2023/01/05 14:20:40;;;;;;;27.38;6.53;;;;;;;;;;5032166;28;20319;-62
2023/01/05 14:23:23;;;;;;;11.40;3.75;;;;;;;;;;5032327;28;20236;-60
2023/01/05 14:25:59;;;;;;;22.13;7.57;;;;;;;;;;5033566;28;20229;-59
2023/01/05 14:28:29;;;;;;;10.37;3.87;;;;;;;;;;5030541;28;20240;-61
2023/01/05 14:31:17;;;;;;;18.98;5.13;;;;;;;;;;5032431;28;20252;-62
2023/01/05 14:33:56;;;;;;;11.65;4.20;;;;;;;;;;5032115;28;20266;-62
2023/01/05 14:36:41;;;;;;;7.43;2.70;;;;;;;;;;5032526;28;20317;-58
2023/01/05 14:39:41;;;;;;;13.83;3.60;;;;;;;;;;5031280;28;20228;-60
2023/01/05 14:42:11;;;;;;;14.97;4.30;;;;;;;;;;5031573;28;20560;-60
2023/01/05 14:44:45;;;;;;;12.63;4.57;;;;;;;;;;5031332;28;20225;-60
2023/01/05 14:47:13;;;;;;;9.27;3.67;;;;;;;;;;5012895;28;20287;-63
2023/01/05 14:50:01;;;;;;;9.55;3.33;;;;;;;;;;5012106;28;20263;-61
2023/01/05 14:53:13;;;;;;;9.27;3.77;;;;;;;;;;5027026;28;20227;-60
2023/01/05 14:56:00;;;;;;;8.63;2.80;;;;;;;;;;5011015;28;20237;-60
2023/01/05 14:58:40;;;;;;;13.73;4.82;;;;;;;;;;5012322;28;20217;-59
2023/01/05 15:01:16;;;;;;;13.95;4.57;;;;;;;;;;5014639;28;20224;-58
2023/01/05 15:03:54;;;;;;;11.80;4.37;;;;;;;;;;5018996;28;20227;-59
2023/01/05 15:06:39;;;;;;;13.05;4.68;;;;;;;;;;5035579;28;20227;-59
2023/01/05 15:09:16;;;;;;;12.60;5.30;;;;;;;;;;5036545;28;20240;-59
2023/01/05 15:12:02;;;;;;;15.75;5.30;;;;;;;;;;5036402;28;20229;-59
2023/01/05 15:14:41;;;;;;;35.85;12.70;;;;;;;;;;5035346;28;20224;-59
2023/01/05 15:17:26;;;;;;;38.58;13.25;;;;;;;;;;5036258;28;20221;-59
2023/01/05 15:20:15;;;;;;;19.17;5.60;;;;;;;;;;5035508;28;20282;-60
2023/01/05 15:23:05;;;;;;;23.07;10.10;;;;;;;;;;5036059;28;20216;-61
2023/01/05 15:25:51;;;;;;;15.73;6.07;;;;;;;;;;5035312;28;20322;-60
2023/01/05 15:29:00;;;;;;;16.02;5.35;;;;;;;;;;5034382;28;20300;-57
2023/01/05 15:31:39;;;;;;;12.57;4.73;;;;;;;;;;5036345;28;20228;-59
2023/01/05 15:34:15;;;;;;;10.52;4.60;;;;;;;;;;5034860;28;20220;-60
2023/01/05 15:36:58;;;;;;;6.53;3.37;;;;;;;;;;5036026;28;20228;-60
2023/01/05 15:39:36;;;;;;;8.27;3.13;;;;;;;;;;5035361;28;20236;-60
2023/01/05 15:42:07;;;;;;;10.50;3.30;;;;;;;;;;5035617;28;20244;-60